Time;durP1;ratioP1;P1;durP2;ratioP2;P2;SDS_P1;SDS_P2;PMS_P1;PMS_P2;Temp;Humidity;BMP_temperature;BMP_pressure;BME280_temperature;BME280_humidity;BME280_pressure;Samples;Min_cycle;Max_cycle;Signal;HPM_P1;HPM_P2
2023/06/16 00:01:44;;;;;;;7.30;4.38;;;17.00;1.00;;;;;;5056152;28;20191;-79
2023/06/16 00:04:12;;;;;;;10.60;4.97;;;16.90;1.00;;;;;;5055698;28;20190;-79
2023/06/16 00:06:42;;;;;;;6.57;4.93;;;16.90;1.00;;;;;;5038070;28;20181;-79
2023/06/16 00:09:08;;;;;;;7.15;4.78;;;16.80;1.00;;;;;;5055662;28;20178;-79
2023/06/16 00:11:34;;;;;;;9.38;5.22;;;16.70;1.00;;;;;;5055892;28;20190;-80
2023/06/16 00:13:59;;;;;;;5.93;4.70;;;16.60;1.00;;;;;;5056902;28;20222;-80
2023/06/16 00:16:26;;;;;;;6.82;4.38;;;16.60;1.00;;;;;;5056027;28;20185;-79
2023/06/16 00:18:53;;;;;;;5.63;4.80;;;16.50;1.00;;;;;;5055575;28;20174;-79
2023/06/16 00:21:25;;;;;;;6.40;4.90;;;16.40;1.00;;;;;;5055883;28;20199;-79
2023/06/16 00:23:51;;;;;;;10.55;5.70;;;16.30;1.00;;;;;;5055430;28;20721;-79
2023/06/16 00:26:17;;;;;;;7.97;4.85;;;16.20;2.40;;;;;;5037427;28;20549;-78
2023/06/16 00:28:43;;;;;;;7.88;5.00;;;16.10;36.10;;;;;;5055321;28;20175;-78
2023/06/16 00:31:09;;;;;;;7.80;5.30;;;16.10;41.60;;;;;;5037366;28;20198;-78
2023/06/16 00:33:35;;;;;;;6.82;4.50;;;16.00;54.00;;;;;;5054532;28;20182;-78
2023/06/16 00:36:01;;;;;;;6.10;4.50;;;16.10;92.60;;;;;;5056587;28;20228;-79
2023/06/16 00:38:30;;;;;;;8.50;4.97;;;16.10;77.60;;;;;;5057073;28;20544;-79
2023/06/16 00:44:33;;;;;;;;;;;;;;;;;;;;;
2023/06/16 00:51:10;;;;;;;7.05;5.05;;;15.70;99.40;;;;;;5015337;28;20210;-79
2023/06/16 00:57:51;;;;;;;11.98;5.00;;;15.60;99.90;;;;;;5065982;28;20178;-79
2023/06/16 01:01:02;;;;;;;;;;;;;;;;;;;;;
2023/06/16 01:06:35;;;;;;;6.63;5.05;;;15.50;99.90;;;;;;5075531;28;20178;-79
2023/06/16 01:09:09;;;;;;;8.30;5.28;;;15.50;99.90;;;;;;5057763;28;20622;-79
2023/06/16 01:11:51;;;;;;;8.93;5.47;;;15.40;99.90;;;;;;5058088;28;20197;-79
2023/06/16 01:14:27;;;;;;;8.82;5.70;;;15.30;99.90;;;;;;5075830;28;20193;-79
2023/06/16 01:16:55;;;;;;;10.10;6.03;;;15.30;99.90;;;;;;5075737;28;20212;-79
2023/06/16 01:19:37;;;;;;;8.20;5.78;;;15.20;99.90;;;;;;5055902;28;20283;-79
2023/06/16 01:22:14;;;;;;;6.35;4.97;;;15.10;99.90;;;;;;5073771;28;20248;-78
2023/06/16 01:24:42;;;;;;;10.23;5.35;;;15.10;99.90;;;;;;5073608;28;20227;-78
2023/06/16 01:27:10;;;;;;;9.25;5.35;;;15.20;99.90;;;;;;5073871;28;20177;-78
2023/06/16 01:29:37;;;;;;;9.35;5.15;;;15.20;99.90;;;;;;5073625;28;20166;-78
2023/06/16 01:32:07;;;;;;;8.93;4.97;;;15.20;99.90;;;;;;5073461;28;20684;-78
2023/06/16 01:34:35;;;;;;;6.43;4.80;;;15.20;99.90;;;;;;5073497;28;20178;-78
2023/06/16 01:37:03;;;;;;;7.53;5.05;;;15.10;99.90;;;;;;5055649;28;20264;-78
2023/06/16 01:39:30;;;;;;;6.63;5.40;;;15.00;99.90;;;;;;5073597;28;20170;-78
2023/06/16 01:41:58;;;;;;;9.15;5.80;;;14.90;99.90;;;;;;5055467;28;20782;-78
2023/06/16 01:44:26;;;;;;;8.13;5.70;;;14.80;99.90;;;;;;5073412;28;20178;-78
2023/06/16 01:46:53;;;;;;;7.68;5.78;;;14.70;99.90;;;;;;5073404;28;20166;-78
2023/06/16 01:49:19;;;;;;;8.00;5.60;;;14.60;99.90;;;;;;5073312;28;20702;-78
2023/06/16 01:51:45;;;;;;;9.45;5.70;;;14.50;99.90;;;;;;5055292;28;20205;-78
2023/06/16 01:54:10;;;;;;;7.35;5.63;;;14.40;99.90;;;;;;5073524;28;20280;-78
2023/06/16 01:56:36;;;;;;;6.88;5.60;;;14.50;99.90;;;;;;5056425;28;20181;-78
2023/06/16 01:59:02;;;;;;;8.90;5.90;;;14.50;99.90;;;;;;5056076;28;20184;-78
2023/06/16 02:01:29;;;;;;;8.55;5.72;;;14.40;99.90;;;;;;5074180;28;20193;-79
2023/06/16 02:04:04;;;;;;;8.40;5.72;;;14.50;99.90;;;;;;5074281;28;20198;-79
2023/06/16 02:06:55;;;;;;;8.85;5.68;;;14.50;99.90;;;;;;5074777;28;20154;-79
2023/06/16 02:09:22;;;;;;;10.90;5.07;;;14.50;99.90;;;;;;5056134;28;20288;-79
2023/06/16 02:11:51;;;;;;;9.73;5.38;;;14.40;99.90;;;;;;5077825;28;20666;-79
2023/06/16 02:14:18;;;;;;;8.13;5.95;;;14.40;99.90;;;;;;5078068;28;20178;-79
2023/06/16 02:16:44;;;;;;;5.72;5.05;;;14.40;99.90;;;;;;5078507;28;20190;-79
2023/06/16 02:19:11;;;;;;;10.38;6.20;;;14.30;99.90;;;;;;5078362;28;20186;-78
2023/06/16 02:21:38;;;;;;;9.88;6.07;;;14.30;99.90;;;;;;5078244;28;20190;-78
2023/06/16 02:24:04;;;;;;;10.57;6.25;;;14.20;99.90;;;;;;5059850;28;20198;-78
2023/06/16 02:26:32;;;;;;;8.85;6.00;;;14.10;99.90;;;;;;5059537;28;20265;-78
2023/06/16 02:28:58;;;;;;;8.25;6.30;;;14.00;99.90;;;;;;5077743;28;20643;-78
2023/06/16 02:31:24;;;;;;;7.93;5.78;;;13.90;99.90;;;;;;5077562;28;20194;-78
2023/06/16 02:33:51;;;;;;;8.63;5.80;;;13.90;99.90;;;;;;5059527;28;20268;-77
2023/06/16 02:36:18;;;;;;;7.18;5.53;;;13.90;99.90;;;;;;5077140;28;20172;-78
2023/06/16 02:38:45;;;;;;;8.15;5.88;;;13.90;99.90;;;;;;5077709;28;20659;-78
2023/06/16 02:41:11;;;;;;;7.03;5.47;;;13.90;99.90;;;;;;5077303;28;20240;-78
2023/06/16 02:43:37;;;;;;;11.00;6.18;;;13.80;99.90;;;;;;5077151;28;20194;-79
2023/06/16 02:46:02;;;;;;;9.20;6.28;;;13.70;99.90;;;;;;5076725;28;20234;-79
2023/06/16 02:48:28;;;;;;;10.27;6.63;;;13.60;99.90;;;;;;5058598;28;20584;-79
2023/06/16 02:50:54;;;;;;;9.75;6.20;;;13.60;99.90;;;;;;5058800;28;20202;-79
2023/06/16 02:53:20;;;;;;;10.50;6.82;;;13.60;99.90;;;;;;5058402;28;20192;-79
2023/06/16 02:55:49;;;;;;;7.70;6.13;;;13.70;99.90;;;;;;5076378;28;20239;-79
2023/06/16 02:58:14;;;;;;;8.15;5.80;;;13.70;99.90;;;;;;5076557;28;20227;-79
2023/06/16 03:00:40;;;;;;;8.27;6.07;;;13.60;99.90;;;;;;5076284;28;20288;-79
2023/06/16 03:03:07;;;;;;;8.65;6.00;;;13.60;99.90;;;;;;5076955;28;20197;-78
2023/06/16 03:05:34;;;;;;;12.27;6.07;;;13.50;99.90;;;;;;5059374;28;20254;-78
2023/06/16 03:07:59;;;;;;;9.07;6.32;;;13.50;99.90;;;;;;5059072;28;20174;-79
2023/06/16 03:10:25;;;;;;;8.43;6.28;;;13.40;99.90;;;;;;5077131;28;20193;-79
2023/06/16 03:12:51;;;;;;;8.98;6.20;;;13.50;99.90;;;;;;5077450;28;20169;-78
2023/06/16 03:15:17;;;;;;;6.35;5.28;;;13.50;99.90;;;;;;5076784;28;20162;-78
2023/06/16 03:17:43;;;;;;;10.18;5.97;;;13.60;99.90;;;;;;5076056;28;20718;-79
2023/06/16 03:20:09;;;;;;;7.82;5.50;;;13.70;99.90;;;;;;5057788;28;20215;-78
2023/06/16 03:22:35;;;;;;;8.23;5.32;;;13.60;99.90;;;;;;5076068;28;20193;-78
2023/06/16 03:25:04;;;;;;;8.57;6.00;;;13.70;99.90;;;;;;5058105;28;20198;-78
2023/06/16 03:27:30;;;;;;;9.02;5.28;;;13.70;99.90;;;;;;5075996;28;20169;-78
2023/06/16 03:29:56;;;;;;;6.28;5.15;;;13.60;99.90;;;;;;5057898;28;20178;-78
2023/06/16 03:32:22;;;;;;;7.50;5.88;;;13.50;99.90;;;;;;5058077;28;20182;-78
2023/06/16 03:34:48;;;;;;;7.32;5.43;;;13.50;99.90;;;;;;5057652;28;20185;-79
2023/06/16 03:37:15;;;;;;;7.53;5.80;;;13.40;99.90;;;;;;5058534;28;20178;-79
2023/06/16 03:39:41;;;;;;;7.03;5.85;;;13.30;99.90;;;;;;5057798;28;20200;-79
2023/06/16 03:42:07;;;;;;;6.88;5.85;;;13.20;99.90;;;;;;5057556;28;20685;-79
2023/06/16 03:44:33;;;;;;;7.88;5.57;;;13.20;99.90;;;;;;5075765;28;20205;-79
2023/06/16 03:46:59;;;;;;;8.60;5.57;;;13.10;99.90;;;;;;5075381;28;20201;-79
2023/06/16 03:49:26;;;;;;;8.82;6.15;;;13.10;99.90;;;;;;5057577;28;20672;-78
2023/06/16 03:51:52;;;;;;;9.15;5.90;;;13.10;99.90;;;;;;5057156;28;20205;-78
2023/06/16 03:54:19;;;;;;;10.85;6.32;;;13.20;99.90;;;;;;5075023;28;20192;-78
2023/06/16 03:56:45;;;;;;;9.70;6.10;;;13.20;99.90;;;;;;5075248;28;20170;-78
2023/06/16 03:59:11;;;;;;;6.63;5.65;;;13.30;99.90;;;;;;5077952;28;20239;-81
2023/06/16 04:01:37;;;;;;;8.63;5.97;;;13.40;99.90;;;;;;5059453;28;20670;-81
2023/06/16 04:04:05;;;;;;;7.95;5.57;;;13.40;99.90;;;;;;5061674;28;20229;-82
2023/06/16 04:06:34;;;;;;;9.15;5.93;;;13.50;99.90;;;;;;5080665;28;20166;-82
2023/06/16 04:09:01;;;;;;;9.30;5.78;;;13.50;99.90;;;;;;5083199;28;20219;-81
2023/06/16 04:11:27;;;;;;;8.35;5.88;;;13.50;99.90;;;;;;5083055;28;20693;-81
2023/06/16 04:13:53;;;;;;;10.32;6.45;;;13.50;99.90;;;;;;5063545;28;20173;-81
2023/06/16 04:16:19;;;;;;;7.88;5.53;;;13.60;99.90;;;;;;5063102;28;20273;-81
2023/06/16 04:18:48;;;;;;;8.02;5.70;;;13.60;99.90;;;;;;5080517;28;20225;-81
2023/06/16 04:21:15;;;;;;;7.88;5.85;;;13.60;99.90;;;;;;5062049;28;20220;-81
2023/06/16 04:23:40;;;;;;;8.68;6.55;;;13.70;99.90;;;;;;5079623;28;20197;-81
2023/06/16 04:26:07;;;;;;;9.82;5.85;;;13.70;99.90;;;;;;5061272;28;20174;-81
2023/06/16 04:28:33;;;;;;;10.10;6.00;;;13.70;99.90;;;;;;5078819;28;20166;-81
2023/06/16 04:31:00;;;;;;;8.13;5.65;;;13.70;99.90;;;;;;5061348;28;20630;-80
2023/06/16 04:33:26;;;;;;;7.82;6.05;;;13.80;99.90;;;;;;5079423;28;20213;-80
2023/06/16 04:35:53;;;;;;;8.00;5.38;;;13.90;99.90;;;;;;5060751;28;20265;-80
2023/06/16 04:38:19;;;;;;;10.15;6.53;;;13.90;99.90;;;;;;5060897;28;20182;-80
2023/06/16 04:40:45;;;;;;;8.68;6.30;;;13.80;99.90;;;;;;5078533;28;20242;-80
2023/06/16 04:43:11;;;;;;;12.38;6.40;;;13.80;99.90;;;;;;5078001;28;20292;-80
2023/06/16 04:45:37;;;;;;;11.70;6.53;;;13.80;99.90;;;;;;5058697;28;20770;-80
2023/06/16 04:48:02;;;;;;;8.38;5.65;;;13.90;99.90;;;;;;5058682;28;20182;-80
2023/06/16 04:50:28;;;;;;;10.13;6.20;;;13.90;99.90;;;;;;5078155;28;20190;-80
2023/06/16 04:52:54;;;;;;;9.45;6.50;;;13.90;99.90;;;;;;5060621;28;20181;-79
2023/06/16 04:55:20;;;;;;;8.40;6.22;;;14.00;99.90;;;;;;5077058;28;20176;-79
2023/06/16 04:57:46;;;;;;;8.18;6.70;;;14.10;99.90;;;;;;5058652;28;20188;-80
2023/06/16 05:00:12;;;;;;;10.40;6.63;;;14.10;99.90;;;;;;5077142;28;20260;-80
2023/06/16 05:02:39;;;;;;;11.32;7.03;;;14.20;99.90;;;;;;5077014;28;20255;-80
2023/06/16 05:05:05;;;;;;;8.73;5.97;;;14.20;99.90;;;;;;5076060;28;20188;-80
2023/06/16 05:07:31;;;;;;;11.32;6.95;;;14.30;99.90;;;;;;5076085;28;20180;-80
2023/06/16 05:09:57;;;;;;;9.38;6.78;;;14.40;99.90;;;;;;5057280;28;20268;-80
2023/06/16 05:12:25;;;;;;;11.27;6.63;;;14.40;99.90;;;;;;5075639;28;20172;-80
2023/06/16 05:14:52;;;;;;;10.18;7.00;;;14.40;99.90;;;;;;5077841;28;20174;-80
2023/06/16 05:17:18;;;;;;;9.77;6.72;;;14.50;99.90;;;;;;5058584;28;20170;-80
2023/06/16 05:19:43;;;;;;;10.27;7.28;;;14.60;99.90;;;;;;5057613;28;20227;-80
2023/06/16 05:22:09;;;;;;;10.57;7.90;;;14.60;99.90;;;;;;5075368;28;20204;-80
2023/06/16 05:24:35;;;;;;;11.48;6.95;;;14.60;99.90;;;;;;5057633;28;20242;-80
2023/06/16 05:27:00;;;;;;;12.90;7.40;;;14.70;99.90;;;;;;5076008;28;20631;-80
2023/06/16 05:29:26;;;;;;;10.20;7.32;;;14.80;99.90;;;;;;5075864;28;20192;-81
2023/06/16 05:31:52;;;;;;;12.63;7.38;;;14.80;99.90;;;;;;5074592;28;20654;-81
2023/06/16 05:34:17;;;;;;;13.73;8.13;;;14.90;99.90;;;;;;5056628;28;20200;-81
2023/06/16 05:36:43;;;;;;;16.30;8.25;;;15.00;99.90;;;;;;5075090;28;20174;-81
2023/06/16 05:39:12;;;;;;;12.00;8.75;;;15.10;70.70;;;;;;5075053;28;20174;-81
2023/06/16 05:41:38;;;;;;;19.02;8.93;;;15.10;75.00;;;;;;5075600;28;20205;-81
2023/06/16 05:44:04;;;;;;;13.00;8.38;;;15.20;47.70;;;;;;5056850;28;20212;-81
2023/06/16 05:46:29;;;;;;;14.18;9.95;;;15.20;41.70;;;;;;5078679;28;20165;-81
2023/06/16 05:48:57;;;;;;;15.82;9.35;;;15.30;80.90;;;;;;5061026;28;20182;-81
2023/06/16 05:51:24;;;;;;;13.80;9.25;;;15.40;35.90;;;;;;5078898;28;20611;-81
2023/06/16 05:53:50;;;;;;;12.60;8.82;;;15.50;1.00;;;;;;5078397;28;20166;-80
2023/06/16 05:56:16;;;;;;;15.45;8.20;;;15.60;8.20;;;;;;5078148;28;20546;-80
2023/06/16 05:58:42;;;;;;;12.68;8.70;;;15.70;19.80;;;;;;5078179;28;20252;-80
2023/06/16 06:01:08;;;;;;;13.07;8.10;;;15.90;67.70;;;;;;5060285;28;20232;-81
2023/06/16 06:03:34;;;;;;;13.70;9.25;;;15.90;10.00;;;;;;5079413;28;20255;-81
2023/06/16 06:06:01;;;;;;;14.00;9.25;;;16.00;26.80;;;;;;5078651;28;20173;-80
2023/06/16 06:08:28;;;;;;;13.48;9.32;;;16.20;1.00;;;;;;5060161;28;20594;-80
2023/06/16 06:10:54;;;;;;;14.75;9.35;;;16.30;17.40;;;;;;5059494;28;20696;-80
2023/06/16 06:13:20;;;;;;;15.23;9.43;;;16.30;1.00;;;;;;5059164;28;20181;-80
2023/06/16 06:15:46;;;;;;;15.85;9.43;;;16.40;1.00;;;;;;5077258;28;20174;-80
2023/06/16 06:18:13;;;;;;;16.00;9.38;;;16.40;1.00;;;;;;5077170;28;20170;-81
2023/06/16 06:20:39;;;;;;;14.80;8.57;;;16.40;1.00;;;;;;5059286;28;20207;-82
2023/06/16 06:23:05;;;;;;;13.48;8.93;;;16.50;1.00;;;;;;5077508;28;20197;-80
2023/06/16 06:25:31;;;;;;;14.63;9.68;;;16.70;1.00;;;;;;5077690;28;20511;-80
2023/06/16 06:27:57;;;;;;;16.13;8.93;;;16.80;1.00;;;;;;5059765;28;20627;-80
2023/06/16 06:30:25;;;;;;;15.68;8.82;;;17.00;1.00;;;;;;5077057;28;20196;-81
2023/06/16 06:32:51;;;;;;;12.68;8.65;;;17.10;1.00;;;;;;5058892;28;20639;-80
2023/06/16 06:35:17;;;;;;;13.38;7.90;;;17.30;1.00;;;;;;5076965;28;20244;-80
2023/06/16 06:37:43;;;;;;;15.77;9.02;;;17.30;99.90;;;;;;5058868;28;20656;-80
2023/06/16 06:40:09;;;;;;;11.98;8.05;;;17.40;99.90;;;;;;5076797;28;20182;-82
2023/06/16 06:42:35;;;;;;;10.55;7.28;;;17.40;99.90;;;;;;5059725;28;20209;-84
2023/06/16 06:45:01;;;;;;;12.60;8.18;;;17.50;99.90;;;;;;5061393;28;20170;-82
2023/06/16 06:47:27;;;;;;;10.63;6.95;;;17.60;99.90;;;;;;5063350;28;20162;-82
2023/06/16 06:49:56;;;;;;;12.65;6.80;;;17.60;1.00;;;;;;5061514;28;20170;-82
2023/06/16 06:52:22;;;;;;;8.70;6.65;;;17.70;99.90;;;;;;5079648;28;20194;-83
2023/06/16 06:54:47;;;;;;;12.73;6.60;;;17.70;1.00;;;;;;5079311;28;20158;-82
2023/06/16 06:57:14;;;;;;;12.07;6.93;;;17.80;99.90;;;;;;5061440;28;20211;-80
2023/06/16 06:59:42;;;;;;;10.35;6.75;;;18.00;1.00;;;;;;5079593;28;20150;-80
2023/06/16 07:02:08;;;;;;;10.38;6.63;;;18.20;1.00;;;;;;5061445;28;20200;-80
2023/06/16 07:04:35;;;;;;;10.80;7.35;;;18.20;99.90;;;;;;5079327;28;20185;-81
2023/06/16 07:07:02;;;;;;;10.35;7.53;;;18.30;1.00;;;;;;5078320;28;20173;-81
2023/06/16 07:09:27;;;;;;;11.85;8.10;;;18.30;1.00;;;;;;5060082;28;20580;-78
2023/06/16 07:11:53;;;;;;;9.98;6.75;;;18.40;1.00;;;;;;5060067;28;20197;-79
2023/06/16 07:14:19;;;;;;;15.23;7.65;;;18.50;99.90;;;;;;5086853;28;20180;-79
2023/06/16 07:16:45;;;;;;;11.93;7.60;;;18.60;1.00;;;;;;5063346;28;20223;-79
2023/06/16 07:19:10;;;;;;;14.13;7.93;;;18.70;99.90;;;;;;5060545;28;20265;-79
2023/06/16 07:21:38;;;;;;;12.02;6.82;;;18.80;99.90;;;;;;5076956;28;20216;-79
2023/06/16 07:24:05;;;;;;;10.82;6.93;;;18.90;1.00;;;;;;5076557;28;20194;-79
2023/06/16 07:26:31;;;;;;;11.40;6.43;;;19.00;99.90;;;;;;5058491;28;20566;-79
2023/06/16 07:28:57;;;;;;;10.95;6.95;;;19.00;1.00;;;;;;5077380;28;20205;-79
2023/06/16 07:31:22;;;;;;;13.30;7.80;;;19.00;1.00;;;;;;5058253;28;20284;-79
2023/06/16 07:33:48;;;;;;;11.38;7.15;;;19.10;1.00;;;;;;5058334;28;20186;-79
2023/06/16 07:36:14;;;;;;;10.10;6.78;;;19.20;65.50;;;;;;5076294;28;20533;-79
2023/06/16 07:38:40;;;;;;;7.97;5.60;;;19.20;1.00;;;;;;5076102;28;20720;-79
2023/06/16 07:41:07;;;;;;;11.65;7.00;;;19.30;1.00;;;;;;5057830;28;20205;-79
2023/06/16 07:43:33;;;;;;;9.05;6.07;;;19.40;1.00;;;;;;5076000;28;20670;-79
2023/06/16 07:45:59;;;;;;;11.30;6.63;;;19.50;99.90;;;;;;5058527;28;20216;-79
2023/06/16 07:48:25;;;;;;;12.07;6.00;;;19.70;99.90;;;;;;5076219;28;20166;-79
2023/06/16 07:50:51;;;;;;;12.57;6.18;;;19.90;1.00;;;;;;5075329;28;20217;-79
2023/06/16 07:53:16;;;;;;;10.35;6.45;;;20.00;1.00;;;;;;5057160;28;20573;-79
2023/06/16 07:55:42;;;;;;;13.02;5.65;;;20.20;91.10;;;;;;5057863;28;20184;-79
2023/06/16 07:58:08;;;;;;;9.07;5.47;;;20.30;99.90;;;;;;5076211;28;20178;-80
2023/06/16 08:00:34;;;;;;;8.70;5.20;;;20.30;1.00;;;;;;5078792;28;20197;-81
2023/06/16 08:03:00;;;;;;;9.90;5.82;;;20.40;1.00;;;;;;5079292;28;20198;-81
2023/06/16 08:05:26;;;;;;;8.43;4.72;;;20.50;14.80;;;;;;5080016;28;20162;-81
2023/06/16 08:07:52;;;;;;;5.43;4.10;;;20.60;39.20;;;;;;5077993;28;20173;-81
2023/06/16 08:10:20;;;;;;;6.65;3.90;;;20.60;84.90;;;;;;5078278;28;20166;-80
2023/06/16 08:12:49;;;;;;;6.55;4.47;;;20.60;91.90;;;;;;5060636;28;20555;-80
2023/06/16 08:15:15;;;;;;;6.10;3.90;;;20.60;99.90;;;;;;5060930;28;20549;-80
2023/06/16 08:17:41;;;;;;;6.85;4.15;;;20.70;99.90;;;;;;5061494;28;20268;-80
2023/06/16 08:20:07;;;;;;;5.57;4.28;;;20.70;96.80;;;;;;5060818;28;20181;-81
2023/06/16 08:22:33;;;;;;;8.90;4.13;;;20.90;99.90;;;;;;5078546;28;20613;-81
2023/06/16 08:24:59;;;;;;;4.47;3.60;;;21.00;99.90;;;;;;5060415;28;20197;-81
2023/06/16 08:27:25;;;;;;;5.32;3.78;;;21.10;99.90;;;;;;5077899;28;20163;-81
2023/06/16 08:29:51;;;;;;;6.57;3.95;;;21.20;99.90;;;;;;5078427;28;20254;-81
2023/06/16 08:32:16;;;;;;;6.88;3.72;;;21.30;99.90;;;;;;5060137;28;20665;-81
2023/06/16 08:34:42;;;;;;;7.35;4.05;;;21.40;99.90;;;;;;5079379;28;20207;-81
2023/06/16 08:37:08;;;;;;;6.07;3.88;;;21.40;99.90;;;;;;5063034;28;20174;-81
2023/06/16 08:39:34;;;;;;;4.55;3.30;;;21.50;99.90;;;;;;5060209;28;20180;-81
2023/06/16 08:42:00;;;;;;;5.25;3.85;;;21.60;99.90;;;;;;5061161;28;20295;-81
2023/06/16 08:44:27;;;;;;;5.10;3.65;;;21.80;99.90;;;;;;5078258;28;20193;-80
2023/06/16 08:46:53;;;;;;;6.22;3.95;;;21.90;99.90;;;;;;5060961;28;20204;-80
2023/06/16 08:49:19;;;;;;;5.50;3.80;;;22.00;99.90;;;;;;5060239;28;20269;-80
2023/06/16 08:51:48;;;;;;;5.40;3.92;;;22.10;99.90;;;;;;5078151;28;20185;-80
2023/06/16 08:54:14;;;;;;;4.10;3.40;;;22.30;99.90;;;;;;5078017;28;20178;-80
2023/06/16 08:56:43;;;;;;;5.20;3.50;;;22.40;99.90;;;;;;5059913;28;20551;-80
2023/06/16 08:59:11;;;;;;;6.35;3.80;;;22.40;99.90;;;;;;5077586;28;20181;-80
2023/06/16 09:01:40;;;;;;;5.80;4.00;;;22.60;99.90;;;;;;5059180;28;20227;-80
2023/06/16 09:04:09;;;;;;;6.15;3.50;;;22.70;99.90;;;;;;5059362;28;20213;-80
2023/06/16 09:06:36;;;;;;;5.05;3.75;;;22.80;99.90;;;;;;5076347;28;20598;-80
2023/06/16 09:09:03;;;;;;;5.63;4.20;;;23.00;99.90;;;;;;5058198;28;20169;-80
2023/06/16 09:11:30;;;;;;;6.68;3.80;;;23.20;99.90;;;;;;5059086;28;20208;-81
2023/06/16 09:13:56;;;;;;;7.78;3.88;;;23.40;99.90;;;;;;5077005;28;20158;-81
2023/06/16 09:16:23;;;;;;;5.72;3.72;;;23.50;99.90;;;;;;5077235;28;20174;-81
2023/06/16 09:18:49;;;;;;;6.05;3.80;;;23.60;99.90;;;;;;5078804;28;20261;-82
2023/06/16 09:21:22;;;;;;;7.00;3.97;;;23.70;99.90;;;;;;5061259;28;20278;-81
2023/06/16 09:23:57;;;;;;;6.32;4.05;;;23.70;99.90;;;;;;5079677;28;20213;-80
2023/06/16 09:26:28;;;;;;;9.43;4.00;;;23.80;99.90;;;;;;5080988;28;20145;-81
2023/06/16 09:28:54;;;;;;;6.43;3.53;;;24.10;99.90;;;;;;5079658;28;20157;-81
2023/06/16 09:31:23;;;;;;;5.50;4.22;;;24.20;99.90;;;;;;5061425;28;20233;-80
2023/06/16 09:33:50;;;;;;;7.63;4.05;;;24.40;99.90;;;;;;5063135;28;20185;-80
2023/06/16 09:36:28;;;;;;;6.97;4.43;;;24.60;99.90;;;;;;5079281;28;20159;-80
2023/06/16 09:38:54;;;;;;;7.28;4.07;;;24.70;99.90;;;;;;5078256;28;20712;-81
2023/06/16 09:41:20;;;;;;;6.55;4.40;;;24.70;99.90;;;;;;5060443;28;20205;-82
2023/06/16 09:43:46;;;;;;;9.00;4.65;;;24.70;99.90;;;;;;5060208;28;20206;-80
2023/06/16 09:46:13;;;;;;;6.70;4.55;;;24.70;99.90;;;;;;5059906;28;20540;-81
2023/06/16 09:48:49;;;;;;;7.47;5.03;;;24.70;99.90;;;;;;5060025;28;20670;-81
2023/06/16 09:51:22;;;;;;;6.00;4.80;;;24.80;99.90;;;;;;5078209;28;20193;-80
2023/06/16 09:53:49;;;;;;;5.88;4.20;;;24.60;99.90;;;;;;5078174;28;20189;-81
2023/06/16 09:56:17;;;;;;;9.18;5.07;;;24.60;99.90;;;;;;5078354;28;20181;-85
2023/06/16 09:58:44;;;;;;;7.57;4.57;;;24.60;99.90;;;;;;5060366;28;20299;-83
2023/06/16 10:01:13;;;;;;;7.63;4.95;;;24.60;99.90;;;;;;5060299;28;20213;-85
2023/06/16 10:03:41;;;;;;;7.82;4.70;;;24.80;99.90;;;;;;5059860;28;20205;-85
2023/06/16 10:06:19;;;;;;;7.90;4.80;;;24.80;99.90;;;;;;5060112;28;20174;-85
2023/06/16 10:08:50;;;;;;;6.50;4.65;;;24.90;99.90;;;;;;5077799;28;20155;-85
2023/06/16 10:11:17;;;;;;;5.63;4.20;;;25.10;99.90;;;;;;5060202;28;20204;-84
2023/06/16 10:13:56;;;;;;;8.60;4.50;;;25.20;99.90;;;;;;5060100;28;20729;-85
2023/06/16 10:16:28;;;;;;;5.78;4.13;;;25.20;99.90;;;;;;5078300;28;20168;-84
2023/06/16 10:18:58;;;;;;;6.45;4.10;;;25.40;99.90;;;;;;5078120;28;20154;-80
2023/06/16 10:21:24;;;;;;;6.00;4.43;;;25.40;99.90;;;;;;5077625;28;20285;-81
2023/06/16 10:23:51;;;;;;;7.65;4.45;;;25.50;99.90;;;;;;5077904;28;20229;-80
2023/06/16 10:26:18;;;;;;;6.47;4.07;;;25.60;99.90;;;;;;5059486;28;20193;-80
2023/06/16 10:28:45;;;;;;;9.30;4.50;;;25.70;99.90;;;;;;5078856;28;20162;-80
2023/06/16 10:31:12;;;;;;;6.53;4.05;;;25.90;99.90;;;;;;5060302;28;20197;-80
2023/06/16 10:33:55;;;;;;;6.40;4.35;;;26.00;99.90;;;;;;5078477;28;20178;-80
2023/06/16 10:36:23;;;;;;;6.10;3.92;;;26.10;99.90;;;;;;5078101;28;20646;-80
2023/06/16 10:39:01;;;;;;;5.97;4.40;;;26.10;99.90;;;;;;5078366;28;20666;-80
2023/06/16 10:41:31;;;;;;;5.43;4.15;;;26.20;99.90;;;;;;5059859;28;20229;-81
2023/06/16 10:44:27;;;;;;;5.55;4.10;;;26.10;99.90;;;;;;5060409;28;20200;-81
2023/06/16 10:47:05;;;;;;;5.50;4.10;;;26.20;99.90;;;;;;5060262;28;20158;-81
2023/06/16 10:49:31;;;;;;;8.05;4.47;;;26.20;99.90;;;;;;5060076;28;20592;-81
2023/06/16 10:52:01;;;;;;;7.43;4.25;;;26.10;99.90;;;;;;5078063;28;20677;-81
2023/06/16 10:54:32;;;;;;;5.50;4.10;;;26.20;99.90;;;;;;5078014;28;20181;-80
2023/06/16 10:57:06;;;;;;;6.25;3.85;;;26.20;99.90;;;;;;5078011;28;20177;-80
2023/06/16 10:59:59;;;;;;;6.35;4.15;;;26.20;99.90;;;;;;5060624;28;20621;-80
2023/06/16 11:02:27;;;;;;;4.88;3.97;;;26.20;99.90;;;;;;5068481;28;20216;-80
2023/06/16 11:05:08;;;;;;;5.43;4.13;;;26.10;99.90;;;;;;5060736;28;20643;-80
2023/06/16 11:07:46;;;;;;;8.68;4.20;;;26.30;99.90;;;;;;5061301;28;20174;-80
2023/06/16 11:10:21;;;;;;;5.05;3.88;;;26.10;99.90;;;;;;5064249;28;20189;-80
2023/06/16 11:12:47;;;;;;;6.45;4.03;;;26.20;99.90;;;;;;5078755;28;20177;-80
2023/06/16 11:15:13;;;;;;;9.98;4.70;;;26.30;99.90;;;;;;5059383;28;20619;-80
2023/06/16 11:17:43;;;;;;;5.28;3.42;;;26.40;99.90;;;;;;5077018;28;20201;-80
2023/06/16 11:20:11;;;;;;;6.40;4.40;;;26.50;99.90;;;;;;5063186;28;20189;-81
2023/06/16 11:22:37;;;;;;;5.47;4.45;;;26.70;99.90;;;;;;5083251;28;20161;-80
2023/06/16 11:25:03;;;;;;;7.85;4.20;;;26.80;99.90;;;;;;5081477;28;20170;-80
2023/06/16 11:27:30;;;;;;;8.38;4.63;;;26.70;99.90;;;;;;5081022;28;20166;-80
2023/06/16 11:29:57;;;;;;;5.63;4.13;;;26.80;99.90;;;;;;5060692;28;20642;-83
2023/06/16 11:32:34;;;;;;;7.22;4.22;;;26.90;99.90;;;;;;5057971;28;20197;-84
2023/06/16 11:35:01;;;;;;;6.07;4.10;;;27.20;99.90;;;;;;5076432;28;20595;-83
2023/06/16 11:37:48;;;;;;;6.75;4.63;;;27.30;99.90;;;;;;5058292;28;20178;-83
2023/06/16 11:40:28;;;;;;;8.57;4.45;;;27.40;99.90;;;;;;5076092;28;20165;-85
2023/06/16 11:43:07;;;;;;;6.20;4.28;;;27.30;99.90;;;;;;5057356;28;20233;-87
2023/06/16 11:45:36;;;;;;;5.97;4.15;;;27.30;99.90;;;;;;5075795;28;20150;-85
2023/06/16 11:48:04;;;;;;;6.32;4.40;;;27.40;99.90;;;;;;5058608;28;20166;-84
2023/06/16 11:50:30;;;;;;;6.47;4.30;;;27.40;99.90;;;;;;5076017;28;20193;-84
2023/06/16 11:52:56;;;;;;;10.70;4.50;;;27.40;99.90;;;;;;5076314;28;20200;-83
2023/06/16 11:55:24;;;;;;;6.63;4.32;;;27.40;99.90;;;;;;5076120;28;20665;-85
2023/06/16 11:57:49;;;;;;;9.23;5.32;;;27.30;99.90;;;;;;5057654;28;20186;-84
2023/06/16 12:00:16;;;;;;;8.15;4.50;;;27.30;99.90;;;;;;5079432;28;20199;-81
2023/06/16 12:02:50;;;;;;;5.50;3.90;;;27.30;99.90;;;;;;5057989;28;20228;-84
2023/06/16 12:05:29;;;;;;;6.15;4.40;;;27.10;99.90;;;;;;5075439;28;20150;-85
2023/06/16 12:07:54;;;;;;;7.80;4.50;;;27.30;99.90;;;;;;5057465;28;20172;-84
2023/06/16 12:10:22;;;;;;;8.27;4.53;;;27.30;99.90;;;;;;5058219;28;20178;-80
2023/06/16 12:12:48;;;;;;;8.50;4.13;;;27.40;99.90;;;;;;5077341;28;20185;-82
2023/06/16 12:15:17;;;;;;;5.55;4.28;;;27.50;99.90;;;;;;5075853;28;20166;-83
2023/06/16 12:17:43;;;;;;;4.82;4.13;;;27.70;99.90;;;;;;5058318;28;20170;-83
2023/06/16 12:20:11;;;;;;;6.18;3.78;;;27.90;99.90;;;;;;5057181;28;20162;-85
2023/06/16 12:22:38;;;;;;;6.20;4.10;;;28.30;99.90;;;;;;5057345;28;20229;-84
2023/06/16 12:28:44;;;;;;;5.07;3.88;;;28.40;99.90;;;;;;5031830;28;20179;-89
2023/06/16 12:31:11;;;;;;;7.05;4.57;;;28.40;99.90;;;;;;5032456;28;20203;-86
2023/06/16 12:33:36;;;;;;;6.93;4.68;;;28.70;99.90;;;;;;5054182;28;20239;-81
2023/06/16 12:36:09;;;;;;;6.30;4.50;;;28.80;99.90;;;;;;5079339;28;20158;-82
2023/06/16 12:38:35;;;;;;;6.20;4.38;;;28.70;99.90;;;;;;5058755;28;20662;-82
2023/06/16 12:41:02;;;;;;;6.60;4.30;;;28.70;99.90;;;;;;5075952;28;20277;-83
2023/06/16 12:43:29;;;;;;;7.57;4.45;;;28.80;99.90;;;;;;5077094;28;20243;-82
2023/06/16 12:45:55;;;;;;;6.97;4.28;;;28.70;99.90;;;;;;5058687;28;20257;-83
2023/06/16 12:48:21;;;;;;;9.07;4.47;;;28.70;99.90;;;;;;5075856;28;20194;-83
2023/06/16 12:50:47;;;;;;;7.68;4.68;;;28.80;99.90;;;;;;5058293;28;20233;-82
2023/06/16 12:53:13;;;;;;;6.05;4.38;;;28.90;99.90;;;;;;5059790;28;20177;-83
2023/06/16 12:55:39;;;;;;;6.75;4.25;;;29.00;99.90;;;;;;5060200;28;20205;-83
2023/06/16 12:58:05;;;;;;;6.75;4.10;;;29.10;99.90;;;;;;5078707;28;20161;-83
2023/06/16 13:00:33;;;;;;;5.53;4.07;;;29.20;99.90;;;;;;5079522;28;20195;-82
2023/06/16 13:02:59;;;;;;;7.97;4.50;;;29.20;99.90;;;;;;5059256;28;20201;-82
2023/06/16 13:05:26;;;;;;;5.22;4.28;;;29.00;99.90;;;;;;5077381;28;20201;-82
2023/06/16 13:07:53;;;;;;;6.88;4.43;;;28.90;99.90;;;;;;5058603;28;20273;-82
2023/06/16 13:10:18;;;;;;;7.40;3.97;;;28.90;99.90;;;;;;5076204;28;20193;-82